»·PEaware :: N5328W KBFL-KMHV

N5328W :: KBFL-KMHV

FLIGHT INFORMATION

Flight Status: Arrived
Operator: Privately registered:
United States
More flights under this callsign
Pilot: Nick S. (31988)
Aircraft: Unknown
(A36)
More flights by this aircraft type
Origin: KBFL Meadows
United States
Destination: KMHV Mojave
United States
More flights between these airports :: More routes between these airports
Route: +JERID DIRECT
File this flight plan on PilotEdge
Remarks:
Altitude:
(Current/Filed)
7,500ft
Speed:
(Current/Filed)
150kts
Departed: 17-Oct-20 08:05 AM
Arrived: 17-Oct-20 08:34 AM
Distance/Time
Traveled:
50nm/0:29
Distance/Time
To Go:
Arrived

Flight Plot

Page will automatically refresh every two minutes.

Flight plan parsing failed; only flown route is shown


Map Options




Map Legend


Flown Route
Filed Route
Departure Airport
Arrival Airport
Navaid (VOR, NDB)
Fix

Horizontal Profiles

Position Reports

Time Latitude Longitude Heading Altitude Ground
Speed
17-Oct-20 07:54 35.432214 -119.050331 226 485ft 0kts
17-Oct-20 07:55 35.432214 -119.050331 226 485ft 0kts
17-Oct-20 07:56 35.432214 -119.050331 226 485ft 0kts
17-Oct-20 07:57 35.429267 -119.048511 138 482ft 23kts
17-Oct-20 07:58 35.425633 -119.044703 232 471ft 0kts
17-Oct-20 07:59 35.425633 -119.044703 232 471ft 0kts
17-Oct-20 08:00 35.425633 -119.044703 232 471ft 0kts
17-Oct-20 08:01 35.425633 -119.044703 232 471ft 0kts
17-Oct-20 08:02 35.425633 -119.044703 232 471ft 0kts
17-Oct-20 08:03 35.425633 -119.044703 232 471ft 0kts
17-Oct-20 08:04 35.431144 -119.053096 314 542ft 90kts
17-Oct-20 08:05 35.449774 -119.075052 314 1572ft 94kts
17-Oct-20 08:06 35.455537 -119.062831 164 2437ft 100kts
17-Oct-20 08:07 35.426074 -119.046976 142 3065ft 135kts
17-Oct-20 08:08 35.397493 -119.013733 135 3821ft 143kts
17-Oct-20 08:09 35.369427 -118.979233 135 4635ft 141kts
17-Oct-20 08:11 35.341508 -118.945170 135 5449ft 141kts
17-Oct-20 08:12 35.313873 -118.911515 135 6254ft 138kts
17-Oct-20 08:13 35.284365 -118.882224 143 7059ft 134kts
17-Oct-20 08:14 35.253242 -118.852680 143 7456ft 156kts
17-Oct-20 08:15 35.216734 -118.818209 143 7459ft 170kts
17-Oct-20 08:16 35.179335 -118.782970 143 7462ft 168kts
17-Oct-20 08:17 35.142091 -118.747855 142 7464ft 169kts
17-Oct-20 08:18 35.104721 -118.712628 142 7462ft 169kts
17-Oct-20 08:19 35.068964 -118.675699 117 7463ft 170kts
17-Oct-20 08:20 35.043180 -118.627447 126 7461ft 170kts
17-Oct-20 08:21 35.014971 -118.581030 127 7460ft 170kts
17-Oct-20 08:22 34.986528 -118.534170 126 7102ft 171kts
17-Oct-20 08:23 34.958424 -118.487866 126 6414ft 168kts
17-Oct-20 08:24 34.930861 -118.442386 126 5713ft 164kts
17-Oct-20 08:25 34.896802 -118.406858 140 5013ft 162kts
17-Oct-20 08:26 34.878790 -118.362168 56 4313ft 162kts
17-Oct-20 08:26 34.907094 -118.336022 37 4164ft 146kts
17-Oct-20 08:28 34.940177 -118.297549 44 4162ft 137kts
17-Oct-20 08:28 34.962917 -118.269889 45 4107ft 139kts
17-Oct-20 08:30 34.987350 -118.223343 63 4223ft 140kts
17-Oct-20 08:30 35.003766 -118.189622 38 4068ft 142kts
17-Oct-20 08:32 35.027886 -118.148498 90 3685ft 111kts
17-Oct-20 08:32 35.037908 -118.126097 4 2888ft 81kts
17-Oct-20 08:33 35.052555 -118.140301 315 2727ft 37kts
17-Oct-20 08:34 35.057614 -118.147806 267 2748ft 0kts
17-Oct-20 08:35 35.057614 -118.147805 267 2748ft 0kts
17-Oct-20 08:36 35.057628 -118.150771 270 2754ft 15kts
17-Oct-20 08:37 35.056970 -118.151834 262 2756ft 0kts
17-Oct-20 08:38 35.056970 -118.151834 262 2756ft 0kts
17-Oct-20 08:39 35.056970 -118.151834 262 2756ft 0kts
17-Oct-20 08:40 35.056970 -118.151834 262 2756ft 0kts
17-Oct-20 08:41 35.056970 -118.151834 262 2756ft 0kts
17-Oct-20 08:42 35.056970 -118.151834 262 2756ft 0kts
17-Oct-20 08:43 35.056970 -118.151834 262 2756ft 0kts
17-Oct-20 08:44 35.056970 -118.151834 262 2756ft 0kts
17-Oct-20 08:45 35.056970 -118.151834 262 2756ft 0kts
17-Oct-20 08:46 35.056970 -118.151834 262 2756ft 0kts
17-Oct-20 08:47 35.056970 -118.151834 262 2756ft 0kts

Navigation Log

Ident Type
Flight plan parsing failed, navigation log unavailable